Time;durP1;ratioP1;P1;durP2;ratioP2;P2;SDS_P1;SDS_P2;PMS_P1;PMS_P2;Temp;Humidity;BMP_temperature;BMP_pressure;BME280_temperature;BME280_humidity;BME280_pressure;Samples;Min_cycle;Max_cycle;Signal;HPM_P1;HPM_P2
2022/06/30 00:00:56;;;;;;;7.10;2.80;;;21.10;99.90;;;;;;4808916;29;20037;-89
2022/06/30 00:03:23;;;;;;;7.50;3.33;;;21.10;99.90;;;;;;4809183;29;20058;-89
2022/06/30 00:05:48;;;;;;;5.97;3.05;;;21.10;99.90;;;;;;4809156;29;20053;-88
2022/06/30 00:08:14;;;;;;;5.13;3.38;;;21.00;99.90;;;;;;4808581;29;20058;-89
2022/06/30 00:10:49;;;;;;;8.45;3.40;;;20.90;99.90;;;;;;4809082;29;20050;-88
2022/06/30 00:13:15;;;;;;;8.75;3.42;;;21.00;99.90;;;;;;4808579;29;20042;-89
2022/06/30 00:15:41;;;;;;;5.28;3.60;;;20.90;99.90;;;;;;4823986;29;20050;-88
2022/06/30 00:18:06;;;;;;;9.18;3.65;;;20.80;99.90;;;;;;4808163;29;20214;-88
2022/06/30 00:20:32;;;;;;;6.40;3.60;;;20.80;99.90;;;;;;4809143;29;20523;-89
2022/06/30 00:23:00;;;;;;;7.40;3.60;;;20.80;99.90;;;;;;4808729;29;20050;-88
2022/06/30 00:25:35;;;;;;;7.97;3.80;;;20.80;99.90;;;;;;4808424;29;20058;-88
2022/06/30 00:28:11;;;;;;;7.72;3.97;;;20.70;99.90;;;;;;4808279;29;20141;-88
2022/06/30 00:30:37;;;;;;;8.80;3.80;;;20.70;99.90;;;;;;4808121;29;20061;-88
2022/06/30 00:33:03;;;;;;;11.55;4.05;;;20.60;99.90;;;;;;4808833;29;20074;-88
2022/06/30 00:35:28;;;;;;;6.55;3.72;;;20.50;99.90;;;;;;4800306;29;20114;-89
2022/06/30 00:38:00;;;;;;;8.32;3.90;;;20.40;99.90;;;;;;4790213;29;20051;-89
2022/06/30 00:40:26;;;;;;;10.13;3.90;;;20.40;99.90;;;;;;4790537;29;20061;-89
2022/06/30 00:42:52;;;;;;;7.28;3.47;;;20.30;99.90;;;;;;4790544;29;20038;-89
2022/06/30 00:45:18;;;;;;;7.43;3.22;;;20.20;99.90;;;;;;4793575;29;20457;-88
2022/06/30 00:47:43;;;;;;;5.57;2.90;;;20.20;99.90;;;;;;4808881;29;20142;-88
2022/06/30 00:50:09;;;;;;;5.53;3.53;;;20.10;99.90;;;;;;4793968;29;20065;-88
2022/06/30 00:52:36;;;;;;;6.18;3.17;;;20.00;99.90;;;;;;4794336;29;20551;-89
2022/06/30 00:55:04;;;;;;;6.43;3.30;;;20.00;99.90;;;;;;4794011;29;20042;-90
2022/06/30 00:57:31;;;;;;;8.15;3.17;;;20.00;99.90;;;;;;4793886;29;20054;-89
2022/06/30 00:59:58;;;;;;;4.70;2.88;;;20.00;99.90;;;;;;4793963;29;20089;-88
2022/06/30 01:02:25;;;;;;;7.93;2.85;;;19.90;99.90;;;;;;4793791;29;20157;-89
2022/06/30 01:04:53;;;;;;;4.07;2.83;;;19.90;99.90;;;;;;4793973;29;20046;-89
2022/06/30 01:07:21;;;;;;;8.85;3.17;;;19.90;99.90;;;;;;4793833;29;20050;-89
2022/06/30 01:12:41;;;;;;;6.97;2.95;;;19.90;99.90;;;;;;4808710;29;20054;-89
2022/06/30 01:15:08;;;;;;;7.82;3.53;;;19.90;99.90;;;;;;4794218;29;20123;-89
2022/06/30 01:17:34;;;;;;;6.15;3.00;;;19.90;99.90;;;;;;4793106;29;20523;-89
2022/06/30 01:20:00;;;;;;;7.15;3.38;;;19.90;99.90;;;;;;4808836;29;20110;-89
2022/06/30 01:22:26;;;;;;;6.32;3.17;;;19.90;99.90;;;;;;4793213;29;20050;-89
2022/06/30 01:24:52;;;;;;;9.93;3.40;;;19.90;99.90;;;;;;4793648;29;20065;-88
2022/06/30 01:27:18;;;;;;;8.63;3.47;;;19.90;99.90;;;;;;4793701;29;20046;-90
2022/06/30 01:29:44;;;;;;;4.95;3.20;;;19.90;99.90;;;;;;4793747;29;20069;-89
2022/06/30 01:32:10;;;;;;;6.00;2.88;;;19.90;99.90;;;;;;4792806;29;20495;-89
2022/06/30 01:34:36;;;;;;;7.15;3.05;;;19.90;99.90;;;;;;4793347;29;20050;-89
2022/06/30 01:37:03;;;;;;;5.85;2.90;;;19.80;99.90;;;;;;4793435;29;20478;-88
2022/06/30 01:39:29;;;;;;;4.07;2.50;;;19.80;99.90;;;;;;4793060;29;20046;-87
2022/06/30 01:41:58;;;;;;;6.28;3.03;;;19.80;99.90;;;;;;4793182;29;20398;-89
2022/06/30 01:44:24;;;;;;;8.00;2.92;;;19.70;99.90;;;;;;4793087;29;20050;-87
2022/06/30 01:46:50;;;;;;;4.97;2.80;;;19.60;99.90;;;;;;4792321;29;20049;-88
2022/06/30 01:49:17;;;;;;;5.07;2.40;;;19.60;99.90;;;;;;4792992;29;20046;-87
2022/06/30 01:51:45;;;;;;;6.93;2.40;;;19.50;99.90;;;;;;4792328;29;20503;-88
2022/06/30 01:54:11;;;;;;;6.63;2.30;;;19.40;99.90;;;;;;4792678;29;20047;-88
2022/06/30 01:56:38;;;;;;;7.63;2.40;;;19.60;99.90;;;;;;4792586;29;20149;-88
2022/06/30 01:59:09;;;;;;;6.40;2.72;;;19.50;99.90;;;;;;4792297;29;20498;-88
2022/06/30 02:01:35;;;;;;;7.38;2.78;;;19.50;99.90;;;;;;4792127;29;20488;-89
2022/06/30 02:06:46;;;;;;;7.38;2.70;;;19.40;99.90;;;;;;4807363;29;20058;-88
2022/06/30 02:09:19;;;;;;;8.40;3.05;;;19.40;99.90;;;;;;4792508;29;20091;-90
2022/06/30 02:11:45;;;;;;;7.72;2.45;;;19.30;99.90;;;;;;4792816;29;20103;-88
2022/06/30 02:14:10;;;;;;;5.68;2.40;;;19.30;99.90;;;;;;4792100;29;20050;-89
2022/06/30 02:16:36;;;;;;;7.30;2.80;;;19.30;99.90;;;;;;4792523;29;20141;-88
2022/06/30 02:19:03;;;;;;;7.90;2.53;;;19.30;99.90;;;;;;4793011;29;20085;-90
2022/06/30 02:21:37;;;;;;;5.50;2.70;;;19.20;99.90;;;;;;4794152;29;20586;-89
2022/06/30 02:24:03;;;;;;;8.65;2.90;;;19.20;99.90;;;;;;4792130;29;20078;-89
2022/06/30 02:26:29;;;;;;;7.50;2.55;;;19.20;99.90;;;;;;4792785;29;20065;-89
2022/06/30 02:28:55;;;;;;;4.00;2.50;;;19.20;99.90;;;;;;4807679;29;20050;-89
2022/06/30 02:31:20;;;;;;;7.47;3.03;;;19.10;99.90;;;;;;4792239;29;20068;-89
2022/06/30 02:33:46;;;;;;;7.88;2.83;;;19.10;99.90;;;;;;4792446;29;20058;-88
2022/06/30 02:36:12;;;;;;;6.30;2.55;;;19.10;99.90;;;;;;4791763;29;20042;-89
2022/06/30 02:38:37;;;;;;;9.27;2.95;;;19.00;99.90;;;;;;4792617;29;20050;-89
2022/06/30 02:41:12;;;;;;;6.57;2.75;;;19.00;99.90;;;;;;4792258;29;20058;-90
2022/06/30 02:43:37;;;;;;;6.90;2.85;;;18.90;99.90;;;;;;4793003;29;20054;-89
2022/06/30 02:46:03;;;;;;;4.70;2.70;;;18.80;99.90;;;;;;4792093;29;20091;-88
2022/06/30 02:48:29;;;;;;;7.22;3.13;;;18.80;99.90;;;;;;4802491;29;20054;-89
2022/06/30 02:50:55;;;;;;;8.68;3.20;;;18.70;99.90;;;;;;4810173;29;20492;-89
2022/06/30 02:53:27;;;;;;;9.15;3.00;;;18.60;99.90;;;;;;4810080;29;20061;-89
2022/06/30 02:55:52;;;;;;;5.47;3.00;;;18.60;99.90;;;;;;4810333;29;20049;-88
2022/06/30 02:58:18;;;;;;;12.70;3.58;;;18.60;99.90;;;;;;4809608;29;20049;-89
2022/06/30 03:00:44;;;;;;;4.72;2.72;;;18.60;99.90;;;;;;4810079;29;20062;-90
2022/06/30 03:03:12;;;;;;;7.63;3.17;;;18.50;99.90;;;;;;4809822;29;20110;-89
2022/06/30 03:05:38;;;;;;;10.68;3.00;;;18.50;99.90;;;;;;4810005;29;20041;-89
2022/06/30 03:08:04;;;;;;;7.68;3.20;;;18.50;99.90;;;;;;4809788;29;20080;-89
2022/06/30 03:10:30;;;;;;;8.32;3.30;;;18.50;99.90;;;;;;4809511;29;20510;-89
2022/06/30 03:12:56;;;;;;;5.70;3.33;;;18.50;99.90;;;;;;4809821;29;20056;-89
2022/06/30 03:15:21;;;;;;;4.65;2.85;;;18.40;99.90;;;;;;4807965;29;20053;-89
2022/06/30 03:17:56;;;;;;;7.72;3.40;;;18.30;99.90;;;;;;4808282;29;20132;-89
2022/06/30 03:20:28;;;;;;;7.57;3.83;;;18.30;99.90;;;;;;4809216;29;20041;-89
2022/06/30 03:23:05;;;;;;;6.80;3.88;;;18.20;99.90;;;;;;4810093;29;20546;-90
2022/06/30 03:25:31;;;;;;;7.07;3.95;;;18.20;99.90;;;;;;4806426;29;20050;-89
2022/06/30 03:27:56;;;;;;;6.75;4.18;;;18.20;99.90;;;;;;4806612;29;20153;-88
2022/06/30 03:30:22;;;;;;;6.22;4.55;;;18.10;99.90;;;;;;4805791;29;20057;-88
2022/06/30 03:32:48;;;;;;;6.60;4.10;;;18.00;99.90;;;;;;4806412;29;20054;-88
2022/06/30 03:35:14;;;;;;;11.32;4.43;;;18.00;99.90;;;;;;4806025;29;20050;-88
2022/06/30 03:37:39;;;;;;;9.27;4.43;;;17.90;99.90;;;;;;4806477;29;20050;-89
2022/06/30 03:40:06;;;;;;;6.45;4.25;;;17.90;99.90;;;;;;4806790;29;20088;-89
2022/06/30 03:42:31;;;;;;;6.88;4.32;;;17.80;99.90;;;;;;4806511;29;20530;-90
2022/06/30 03:44:57;;;;;;;7.55;4.50;;;17.80;99.90;;;;;;4806616;29;20142;-90
2022/06/30 03:47:23;;;;;;;7.60;4.10;;;17.80;99.90;;;;;;4805952;29;20050;-90
2022/06/30 03:49:49;;;;;;;7.25;4.35;;;17.80;99.90;;;;;;4806742;29;20137;-90
2022/06/30 03:52:20;;;;;;;6.50;4.43;;;17.70;99.90;;;;;;4806771;29;20042;-90
2022/06/30 03:54:46;;;;;;;8.45;4.47;;;17.70;99.90;;;;;;4806380;29;20057;-89
2022/06/30 03:57:11;;;;;;;7.07;4.78;;;17.70;99.90;;;;;;4806085;29;20050;-90
2022/06/30 03:59:37;;;;;;;13.25;4.85;;;17.70;99.90;;;;;;4805960;29;20046;-90
2022/06/30 04:02:04;;;;;;;12.15;4.50;;;17.60;99.90;;;;;;4806045;29;20050;-90
2022/06/30 04:04:33;;;;;;;7.47;4.57;;;17.70;99.90;;;;;;4806426;29;20057;-89
2022/06/30 04:06:59;;;;;;;9.40;5.15;;;17.60;99.90;;;;;;4806586;29;20061;-90
2022/06/30 04:09:25;;;;;;;10.00;5.00;;;17.60;99.90;;;;;;4806213;29;20403;-90
2022/06/30 04:11:50;;;;;;;7.00;4.60;;;17.60;99.90;;;;;;4806435;29;20518;-89
2022/06/30 04:14:16;;;;;;;7.97;4.50;;;17.60;99.90;;;;;;4805869;29;20129;-89
2022/06/30 04:16:42;;;;;;;9.45;4.63;;;17.60;99.90;;;;;;4805966;29;20062;-90
2022/06/30 04:19:07;;;;;;;8.73;5.00;;;17.60;99.90;;;;;;4808006;29;20535;-90
2022/06/30 04:21:33;;;;;;;9.48;4.90;;;17.60;99.90;;;;;;4809956;29;20065;-90
2022/06/30 04:23:59;;;;;;;5.40;4.18;;;17.60;99.90;;;;;;4812288;29;20058;-90
2022/06/30 04:26:29;;;;;;;6.25;4.30;;;17.60;99.90;;;;;;4812437;29;20062;-89
2022/06/30 04:28:54;;;;;;;9.75;4.57;;;17.60;99.90;;;;;;4812380;29;20046;-90
2022/06/30 04:34:21;;;;;;;10.18;4.30;;;17.70;99.90;;;;;;4827743;29;20054;-90
2022/06/30 04:36:47;;;;;;;7.83;4.00;;;17.70;99.90;;;;;;4813209;29;20166;-89
2022/06/30 04:39:13;;;;;;;9.73;4.13;;;17.80;99.90;;;;;;4812113;29;20166;-91
2022/06/30 04:41:39;;;;;;;5.32;3.45;;;17.90;99.90;;;;;;4812873;29;20089;-91
2022/06/30 04:44:05;;;;;;;8.15;3.95;;;18.00;99.90;;;;;;4812698;29;20090;-90
2022/06/30 04:46:37;;;;;;;6.95;3.80;;;18.10;99.90;;;;;;4812422;29;20112;-91
2022/06/30 04:49:02;;;;;;;5.95;3.72;;;18.20;99.90;;;;;;4811825;29;20129;-90
2022/06/30 04:51:28;;;;;;;9.40;3.63;;;18.20;99.90;;;;;;4812324;29;20110;-90
2022/06/30 04:53:54;;;;;;;10.40;3.65;;;18.30;99.90;;;;;;4812403;29;20061;-90
2022/06/30 04:56:20;;;;;;;8.57;3.75;;;18.40;99.90;;;;;;4811906;29;20091;-90
2022/06/30 04:58:52;;;;;;;7.38;3.10;;;18.40;99.90;;;;;;4812740;29;20045;-89
2022/06/30 05:01:18;;;;;;;6.03;3.22;;;18.50;99.90;;;;;;4811919;29;20084;-90
2022/06/30 05:03:43;;;;;;;6.57;3.03;;;18.60;99.90;;;;;;4812493;29;20424;-91
2022/06/30 05:06:09;;;;;;;5.28;3.03;;;18.80;99.90;;;;;;4811725;29;20057;-90
2022/06/30 05:08:35;;;;;;;6.53;3.08;;;18.90;99.90;;;;;;4812300;29;20078;-90
2022/06/30 05:11:01;;;;;;;6.78;2.88;;;19.10;99.90;;;;;;4812164;29;20479;-93
2022/06/30 05:13:42;;;;;;;4.47;3.00;;;19.30;99.90;;;;;;4828241;29;20053;-91
2022/06/30 05:16:08;;;;;;;8.43;3.75;;;19.30;99.90;;;;;;4811939;29;20380;-92
2022/06/30 05:18:34;;;;;;;11.10;4.82;;;19.30;99.90;;;;;;4812387;29;20140;-91
2022/06/30 05:21:03;;;;;;;12.65;5.97;;;19.30;99.90;;;;;;4812098;29;20042;-88
2022/06/30 05:23:29;;;;;;;14.32;9.25;;;19.40;99.90;;;;;;4811587;29;20110;-89
2022/06/30 05:28:45;;;;;;;27.98;16.15;;;19.50;99.90;;;;;;4826339;29;20455;-87
2022/06/30 05:31:11;;;;;;;27.67;20.08;;;19.50;99.90;;;;;;4810669;29;20089;-90
2022/06/30 05:33:39;;;;;;;32.05;26.65;;;19.60;99.90;;;;;;4811456;29;20050;-90
2022/06/30 05:36:06;;;;;;;48.47;38.50;;;19.70;99.90;;;;;;4811277;29;20083;-89
2022/06/30 05:38:32;;;;;;;59.70;41.80;;;19.80;99.90;;;;;;4801250;29;20058;-89
2022/06/30 05:40:57;;;;;;;56.25;40.92;;;19.90;99.90;;;;;;4810841;29;20045;-88
2022/06/30 05:43:35;;;;;;;53.40;38.63;;;20.00;99.90;;;;;;4811227;29;20216;-89
2022/06/30 05:46:14;;;;;;;49.22;33.25;;;20.20;99.90;;;;;;4806336;29;20110;-92
2022/06/30 05:48:40;;;;;;;38.75;28.30;;;20.30;99.90;;;;;;4810097;29;20071;-92
2022/06/30 05:51:06;;;;;;;35.00;25.17;;;20.40;99.90;;;;;;4807513;29;20487;-94
2022/06/30 05:53:40;;;;;;;27.05;20.30;;;20.50;99.90;;;;;;4795149;29;20061;-92
2022/06/30 05:56:05;;;;;;;26.08;15.80;;;20.60;99.90;;;;;;4826115;29;20041;-93
2022/06/30 05:58:45;;;;;;;18.23;11.43;;;20.70;99.90;;;;;;4810670;29;20060;-92
2022/06/30 06:01:20;;;;;;;16.17;8.15;;;20.80;99.90;;;;;;4811879;29;20132;-91
2022/06/30 06:03:46;;;;;;;8.02;5.68;;;20.90;99.90;;;;;;4827499;29;20383;-92
2022/06/30 06:06:11;;;;;;;15.25;5.53;;;21.00;99.90;;;;;;4811100;29;20046;-93
2022/06/30 06:08:37;;;;;;;8.07;5.32;;;21.10;99.90;;;;;;4811078;29;20050;-91
2022/06/30 06:11:09;;;;;;;10.90;5.45;;;21.10;99.90;;;;;;4811011;29;20101;-91
2022/06/30 06:13:35;;;;;;;6.63;4.50;;;21.20;99.90;;;;;;4808350;29;20140;-93
2022/06/30 06:16:01;;;;;;;11.73;4.60;;;21.30;99.90;;;;;;4792868;29;20503;-92
2022/06/30 06:18:29;;;;;;;7.53;5.05;;;21.40;99.90;;;;;;4801072;29;20132;-92
2022/06/30 06:20:55;;;;;;;9.82;5.45;;;21.50;99.90;;;;;;4810638;29;20505;-92
2022/06/30 06:23:21;;;;;;;10.80;4.80;;;21.50;99.90;;;;;;4810678;29;20089;-92
2022/06/30 06:25:47;;;;;;;13.65;5.43;;;21.60;99.90;;;;;;4807324;29;20161;-93
2022/06/30 06:30:56;;;;;;;8.65;5.13;;;21.70;99.90;;;;;;4818982;29;20482;-92
2022/06/30 06:33:22;;;;;;;9.90;5.25;;;21.80;99.90;;;;;;4807399;29;20055;-93
2022/06/30 06:35:48;;;;;;;10.40;5.07;;;21.90;99.90;;;;;;4810467;29;20106;-94
2022/06/30 06:38:14;;;;;;;10.48;4.45;;;22.00;99.90;;;;;;4810208;29;20486;-92
2022/06/30 06:40:41;;;;;;;10.05;4.38;;;22.10;99.90;;;;;;4810513;29;20088;-94
2022/06/30 06:43:07;;;;;;;7.50;4.18;;;22.20;99.90;;;;;;4810227;29;20053;-93
2022/06/30 06:45:39;;;;;;;8.75;4.95;;;22.30;99.90;;;;;;4810899;29;20270;-92
2022/06/30 06:48:07;;;;;;;12.63;5.10;;;22.90;99.90;;;;;;4810953;29;20058;-94
2022/06/30 06:50:39;;;;;;;14.23;5.32;;;22.50;99.90;;;;;;4811002;29;20050;-89
2022/06/30 06:53:19;;;;;;;9.88;5.18;;;22.50;99.90;;;;;;4810176;29;20487;-88
2022/06/30 06:55:59;;;;;;;10.57;5.40;;;22.60;99.90;;;;;;4810097;29;20414;-87
2022/06/30 06:58:25;;;;;;;10.15;5.32;;;22.60;99.90;;;;;;4809632;29;20490;-89
2022/06/30 07:00:53;;;;;;;10.38;5.25;;;22.70;99.90;;;;;;4809811;29;20046;-88
2022/06/30 07:03:33;;;;;;;10.60;5.60;;;22.90;99.90;;;;;;4808903;29;20054;-89
2022/06/30 07:06:03;;;;;;;16.13;4.68;;;22.90;99.90;;;;;;4809700;29;20058;-90
2022/06/30 07:08:35;;;;;;;12.10;4.13;;;23.00;99.90;;;;;;4809827;29;20158;-88
2022/06/30 07:11:03;;;;;;;8.10;3.83;;;23.10;99.90;;;;;;4809500;29;20087;-88
2022/06/30 07:13:29;;;;;;;7.57;3.75;;;23.10;99.90;;;;;;4809892;29;20058;-89
2022/06/30 07:16:07;;;;;;;7.40;3.50;;;23.30;99.90;;;;;;4809321;29;20053;-89
2022/06/30 07:18:46;;;;;;;5.05;3.65;;;23.30;99.90;;;;;;4825073;29;20080;-89
2022/06/30 07:21:12;;;;;;;7.25;3.80;;;23.30;99.90;;;;;;4809006;29;20106;-88
2022/06/30 07:23:38;;;;;;;6.22;3.38;;;23.40;99.90;;;;;;4809147;29;20054;-87
2022/06/30 07:26:04;;;;;;;10.95;4.18;;;23.40;99.90;;;;;;4808814;29;20062;-88
2022/06/30 07:28:34;;;;;;;9.45;3.10;;;23.60;99.90;;;;;;4809063;29;20050;-89
2022/06/30 07:31:15;;;;;;;7.30;3.17;;;23.60;99.90;;;;;;4809128;29;20106;-88
2022/06/30 07:33:42;;;;;;;5.65;3.20;;;23.80;99.90;;;;;;4794537;29;20058;-89
2022/06/30 07:36:12;;;;;;;9.35;3.50;;;23.80;99.90;;;;;;4808940;29;20049;-88
2022/06/30 07:38:40;;;;;;;8.43;3.42;;;23.90;99.90;;;;;;4809272;29;20101;-87
2022/06/30 07:41:16;;;;;;;7.50;3.53;;;24.00;99.90;;;;;;4809073;29;20049;-89
2022/06/30 07:43:42;;;;;;;6.65;3.90;;;24.00;99.90;;;;;;4809264;29;20042;-89
2022/06/30 07:46:17;;;;;;;6.70;3.45;;;24.10;99.90;;;;;;4808692;29;20114;-89
2022/06/30 07:48:44;;;;;;;4.65;3.40;;;24.20;99.90;;;;;;4808967;29;20042;-88
2022/06/30 07:51:20;;;;;;;12.30;3.22;;;24.30;99.90;;;;;;4808657;29;20053;-88
2022/06/30 07:53:49;;;;;;;8.27;3.25;;;24.40;99.90;;;;;;4809011;29;20091;-89
2022/06/30 07:56:20;;;;;;;9.43;3.55;;;24.60;99.90;;;;;;4809199;29;20058;-90
2022/06/30 07:58:50;;;;;;;6.25;3.47;;;24.70;99.90;;;;;;4809493;29;20049;-89
2022/06/30 08:01:27;;;;;;;6.28;3.72;;;24.90;99.90;;;;;;4808665;29;20058;-90
2022/06/30 08:03:53;;;;;;;9.02;3.67;;;25.00;99.90;;;;;;4809494;29;20491;-88
2022/06/30 08:06:18;;;;;;;9.90;3.60;;;25.10;99.90;;;;;;4805576;29;20205;-89
2022/06/30 08:08:44;;;;;;;8.40;3.97;;;25.10;99.90;;;;;;4808077;29;20066;-87
2022/06/30 08:11:11;;;;;;;6.53;3.70;;;25.20;99.90;;;;;;4808701;29;20098;-89
2022/06/30 08:13:37;;;;;;;7.75;4.15;;;25.20;99.90;;;;;;4808183;29;20050;-88
2022/06/30 08:16:13;;;;;;;7.10;4.10;;;25.20;99.90;;;;;;4808213;29;20046;-88
2022/06/30 08:18:38;;;;;;;6.60;3.85;;;25.20;99.90;;;;;;4807331;29;20049;-88
2022/06/30 08:21:04;;;;;;;9.40;3.78;;;25.30;99.90;;;;;;4807725;29;20064;-89
2022/06/30 08:23:30;;;;;;;9.50;3.90;;;25.40;99.90;;;;;;4808341;29;20081;-89
2022/06/30 08:26:05;;;;;;;12.50;4.05;;;25.50;99.90;;;;;;4808109;29;20085;-89
2022/06/30 08:28:33;;;;;;;7.50;3.90;;;25.50;99.90;;;;;;4809303;29;20077;-87
2022/06/30 08:31:00;;;;;;;6.90;3.58;;;25.60;99.90;;;;;;4808365;29;20098;-88
2022/06/30 08:33:32;;;;;;;6.65;4.07;;;25.70;99.90;;;;;;4808023;29;20065;-88
2022/06/30 08:35:58;;;;;;;5.35;3.78;;;25.70;99.90;;;;;;4808459;29;20038;-88
2022/06/30 08:38:25;;;;;;;6.97;4.30;;;25.80;99.90;;;;;;4804562;29;20058;-87
2022/06/30 08:43:58;;;;;;;8.88;4.18;;;25.90;99.90;;;;;;4823815;29;20482;-89
2022/06/30 08:46:26;;;;;;;10.75;4.18;;;25.90;99.90;;;;;;4807582;29;20054;-89
2022/06/30 08:48:53;;;;;;;7.65;3.92;;;26.00;99.90;;;;;;4808231;29;20046;-87
2022/06/30 08:51:20;;;;;;;7.13;3.90;;;26.00;99.90;;;;;;4807400;29;20050;-87
2022/06/30 08:53:52;;;;;;;10.45;4.18;;;26.20;99.90;;;;;;4808324;29;20396;-88
2022/06/30 08:56:19;;;;;;;7.60;3.92;;;26.30;99.90;;;;;;4808293;29;20114;-88
2022/06/30 08:58:46;;;;;;;10.50;4.95;;;26.40;99.90;;;;;;4808517;29;20579;-88
2022/06/30 09:01:12;;;;;;;6.13;4.47;;;26.40;99.90;;;;;;4807584;29;20042;-87
2022/06/30 09:03:39;;;;;;;7.45;4.40;;;26.40;99.90;;;;;;4808271;29;20050;-87
2022/06/30 09:06:05;;;;;;;8.20;4.80;;;26.50;99.90;;;;;;4810599;29;20052;-87
2022/06/30 09:08:31;;;;;;;13.00;4.85;;;26.60;99.90;;;;;;4810963;29;20447;-87
2022/06/30 09:11:06;;;;;;;11.70;5.05;;;26.70;99.90;;;;;;4811104;29;20054;-87
2022/06/30 09:13:48;;;;;;;6.47;4.75;;;26.80;99.90;;;;;;4811482;29;20054;-87
2022/06/30 09:16:14;;;;;;;7.07;4.70;;;26.80;99.90;;;;;;4811044;29;20098;-86
2022/06/30 09:18:43;;;;;;;9.43;4.95;;;26.90;99.90;;;;;;4811824;29;20086;-87
2022/06/30 09:21:35;;;;;;;8.40;4.80;;;26.70;99.90;;;;;;4810939;29;20491;-88
2022/06/30 09:24:01;;;;;;;7.93;4.75;;;27.10;99.90;;;;;;4826230;29;20608;-87
2022/06/30 09:26:27;;;;;;;5.60;4.53;;;27.10;99.90;;;;;;4810671;29;20050;-87
2022/06/30 09:28:55;;;;;;;9.70;5.05;;;27.20;99.90;;;;;;4810959;29;20114;-87
2022/06/30 09:31:34;;;;;;;7.07;5.28;;;27.30;99.90;;;;;;4810096;29;20089;-87
2022/06/30 09:34:18;;;;;;;7.93;5.00;;;27.30;99.90;;;;;;4810866;29;20820;-87
2022/06/30 09:36:53;;;;;;;10.02;4.85;;;27.40;99.90;;;;;;4810215;29;20054;-87
2022/06/30 09:39:22;;;;;;;6.70;4.50;;;27.30;99.90;;;;;;4825850;29;20053;-87
2022/06/30 09:41:50;;;;;;;7.50;4.93;;;27.40;99.90;;;;;;4810756;29;20558;-87
2022/06/30 09:44:16;;;;;;;11.50;5.20;;;27.40;99.90;;;;;;4810421;29;20046;-87
2022/06/30 09:47:18;;;;;;;6.60;4.28;;;27.50;99.90;;;;;;4811599;29;20052;-88
2022/06/30 09:49:46;;;;;;;7.32;3.75;;;27.60;99.90;;;;;;4810973;29;20530;-87
2022/06/30 09:52:20;;;;;;;9.73;4.68;;;27.70;99.90;;;;;;4810252;29;20052;-88
2022/06/30 09:55:00;;;;;;;10.73;4.30;;;27.80;99.90;;;;;;4826031;29;20058;-88
2022/06/30 09:57:28;;;;;;;6.90;4.60;;;27.80;99.90;;;;;;4810004;29;20136;-88
2022/06/30 10:00:01;;;;;;;8.38;4.95;;;27.80;99.90;;;;;;4811073;29;20097;-88
2022/06/30 10:02:35;;;;;;;7.65;5.07;;;27.80;99.90;;;;;;4809584;29;20049;-87
2022/06/30 10:05:13;;;;;;;10.05;5.82;;;27.90;99.90;;;;;;4810540;29;20085;-87
2022/06/30 10:07:40;;;;;;;10.52;5.15;;;28.00;99.90;;;;;;4810631;29;20066;-87
2022/06/30 10:10:17;;;;;;;9.25;5.70;;;28.00;99.90;;;;;;4810620;29;20050;-88
2022/06/30 10:12:52;;;;;;;7.03;5.13;;;28.10;99.90;;;;;;4810444;29;20049;-87
2022/06/30 10:15:20;;;;;;;6.13;5.00;;;28.00;99.90;;;;;;4809368;29;20046;-86
2022/06/30 10:17:59;;;;;;;9.38;5.60;;;28.10;99.90;;;;;;4824577;29;20046;-88
2022/06/30 10:20:28;;;;;;;8.35;5.10;;;28.10;99.90;;;;;;4809939;29;20418;-86
2022/06/30 10:22:56;;;;;;;6.93;5.03;;;28.10;99.90;;;;;;4810821;29;20045;-88
2022/06/30 10:25:23;;;;;;;8.55;5.88;;;28.10;99.90;;;;;;4809156;29;20846;-88
2022/06/30 10:27:50;;;;;;;9.75;4.47;;;28.10;99.90;;;;;;4810901;29;20046;-88
2022/06/30 10:30:25;;;;;;;10.45;5.30;;;28.10;99.90;;;;;;4809273;29;20106;-89
2022/06/30 10:33:14;;;;;;;8.68;5.00;;;28.50;99.90;;;;;;4810189;29;20489;-88
2022/06/30 10:35:46;;;;;;;7.35;5.50;;;28.40;99.90;;;;;;4810241;29;20042;-87
2022/06/30 10:38:28;;;;;;;11.13;6.80;;;28.60;99.90;;;;;;4809912;29;20069;-89
2022/06/30 10:41:12;;;;;;;8.70;6.13;;;28.70;99.90;;;;;;4809691;29;20073;-87
2022/06/30 10:44:14;;;;;;;8.23;6.30;;;28.70;99.90;;;;;;4809258;29;20052;-88
2022/06/30 10:46:44;;;;;;;11.10;5.70;;;28.70;99.90;;;;;;4809440;29;20129;-87
2022/06/30 10:49:14;;;;;;;8.80;5.70;;;28.80;99.90;;;;;;4809805;29;20049;-88
2022/06/30 10:51:48;;;;;;;11.30;5.78;;;28.90;99.90;;;;;;4806070;29;20472;-88
2022/06/30 10:54:46;;;;;;;8.05;5.60;;;28.90;99.90;;;;;;4809159;29;20049;-87
2022/06/30 11:01:04;;;;;;;8.88;5.75;;;28.60;99.90;;;;;;4808811;29;20054;-88
2022/06/30 11:03:30;;;;;;;14.15;6.65;;;28.20;99.90;;;;;;4809492;29;20050;-88
2022/06/30 11:06:07;;;;;;;12.05;5.70;;;27.90;99.90;;;;;;4809115;29;20136;-87
2022/06/30 11:08:36;;;;;;;6.45;5.03;;;27.80;99.90;;;;;;4809289;29;20050;-88
2022/06/30 11:11:20;;;;;;;12.75;5.40;;;27.70;99.90;;;;;;4809459;29;20133;-87
2022/06/30 11:14:13;;;;;;;8.27;5.38;;;27.70;99.90;;;;;;4808950;29;20091;-87
2022/06/30 11:16:39;;;;;;;10.85;5.90;;;27.70;99.90;;;;;;4808039;29;20049;-87
2022/06/30 11:19:15;;;;;;;8.45;4.93;;;27.80;99.90;;;;;;4808211;29;20054;-88
2022/06/30 11:21:43;;;;;;;9.18;5.45;;;27.90;99.90;;;;;;4808876;29;20068;-87
2022/06/30 11:24:11;;;;;;;7.00;4.70;;;28.00;99.90;;;;;;4824427;29;20046;-87
2022/06/30 11:27:19;;;;;;;6.63;5.10;;;28.00;99.90;;;;;;4809565;29;20068;-87
2022/06/30 11:29:46;;;;;;;11.63;5.20;;;28.00;99.90;;;;;;4809145;29;20503;-87
2022/06/30 11:32:12;;;;;;;7.45;4.82;;;27.90;99.90;;;;;;4808581;29;20348;-88
2022/06/30 11:34:40;;;;;;;7.40;4.80;;;27.80;99.90;;;;;;4809084;29;20049;-87
2022/06/30 11:37:07;;;;;;;10.00;5.38;;;27.70;99.90;;;;;;4806856;29;20091;-88
2022/06/30 11:39:33;;;;;;;6.57;5.20;;;27.60;99.90;;;;;;4808815;29;20145;-87
2022/06/30 11:42:01;;;;;;;7.07;4.85;;;27.40;99.90;;;;;;4808142;29;20217;-88
2022/06/30 11:44:38;;;;;;;8.63;4.88;;;27.30;99.90;;;;;;4808573;29;20402;-88
2022/06/30 11:47:10;;;;;;;8.23;5.30;;;27.20;99.90;;;;;;4808868;29;20042;-88
2022/06/30 11:49:53;;;;;;;9.63;4.90;;;27.10;99.90;;;;;;4808960;29;20042;-88
2022/06/30 11:52:28;;;;;;;;;;;26.90;99.90;;;;;;4808680;29;20558;-87
2022/06/30 11:54:56;;;;;;;9.82;6.75;;;26.30;99.90;;;;;;4838964;29;19932;-87
2022/06/30 11:57:25;;;;;;;18.58;5.53;;;26.30;99.90;;;;;;4806988;29;20053;-86
2022/06/30 11:59:54;;;;;;;14.65;5.20;;;26.00;99.90;;;;;;4808659;29;20062;-87
2022/06/30 12:02:20;;;;;;;11.75;4.30;;;25.70;99.90;;;;;;4807514;29;20130;-88
2022/06/30 12:04:51;;;;;;;10.98;3.97;;;25.50;99.90;;;;;;4808252;29;20520;-87
2022/06/30 12:07:18;;;;;;;6.65;3.60;;;25.30;99.90;;;;;;4807844;29;20502;-87
2022/06/30 12:09:49;;;;;;;7.07;4.35;;;25.10;99.90;;;;;;4809008;29;20521;-88
2022/06/30 12:12:19;;;;;;;8.32;4.30;;;25.10;99.90;;;;;;4808310;29;20125;-89
2022/06/30 12:14:47;;;;;;;7.97;5.07;;;25.00;99.90;;;;;;4809092;29;20144;-88
2022/06/30 12:17:24;;;;;;;7.88;5.57;;;24.80;99.90;;;;;;4808058;29;20042;-85
2022/06/30 12:19:52;;;;;;;11.15;5.72;;;24.80;99.90;;;;;;4822777;29;20057;-86
2022/06/30 12:59:27;;;;;;;10.75;9.00;;;25.30;99.90;;;;;;5053713;23;20140;-96
2022/06/30 13:02:09;;;;;;;11.32;8.65;;;25.40;99.90;;;;;;4849029;29;20061;-96
2022/06/30 13:04:47;;;;;;;11.85;9.07;;;25.50;99.90;;;;;;4850998;29;20026;-96
2022/06/30 13:07:22;;;;;;;10.48;8.45;;;25.50;99.90;;;;;;4832513;29;20109;-95
2022/06/30 13:09:49;;;;;;;;;;;25.70;99.90;;;;;;4836209;29;20406;-96
2022/06/30 13:12:22;;;;;;;12.73;8.40;;;25.80;99.90;;;;;;4850615;29;19923;-96
2022/06/30 13:14:48;;;;;;;8.93;7.13;;;25.80;99.90;;;;;;4857417;24;20079;-95
2022/06/30 13:17:14;;;;;;;9.32;7.70;;;25.90;99.90;;;;;;5506121;23;20048;-96
2022/06/30 13:19:41;;;;;;;13.32;8.32;;;25.90;99.90;;;;;;4848216;29;20057;-95
2022/06/30 13:22:07;;;;;;;12.15;9.77;;;25.80;99.90;;;;;;4839092;29;20045;-95
2022/06/30 13:24:44;;;;;;;14.90;12.00;;;25.70;99.90;;;;;;4835608;29;20086;-95
2022/06/30 13:27:13;;;;;;;15.77;12.80;;;25.70;99.90;;;;;;4833859;29;20061;-95
2022/06/30 13:29:50;;;;;;;18.40;13.10;;;25.70;99.90;;;;;;4834129;29;20056;-96
2022/06/30 13:32:18;;;;;;;16.92;14.68;;;25.70;99.90;;;;;;4834436;29;20587;-96
2022/06/30 13:34:54;;;;;;;18.10;14.35;;;25.70;99.90;;;;;;4835854;29;20132;-96
2022/06/30 13:37:20;;;;;;;17.00;14.45;;;25.70;99.90;;;;;;4829302;29;20057;-96
2022/06/30 13:39:55;;;;;;;19.65;15.88;;;25.90;99.90;;;;;;4829767;29;20061;-95
2022/06/30 13:42:21;;;;;;;20.38;15.80;;;25.90;99.90;;;;;;4844536;29;20050;-96
2022/06/30 13:44:49;;;;;;;20.35;15.32;;;25.80;99.90;;;;;;4814393;29;20050;-95
2022/06/30 13:47:15;;;;;;;20.85;17.10;;;25.70;99.90;;;;;;4844388;29;20079;-96
2022/06/30 13:49:46;;;;;;;25.65;19.15;;;25.70;99.90;;;;;;4846575;29;20053;-96
2022/06/30 13:52:15;;;;;;;21.05;18.42;;;25.60;99.90;;;;;;4817350;29;20050;-96